createdAt,value
2022-10-11T00:00:40.093Z,56.17
2022-10-11T00:01:40.192Z,56.27
2022-10-11T00:02:40.130Z,56.27
2022-10-11T00:03:40.120Z,56.27
2022-10-11T00:04:40.135Z,56.17
2022-10-11T00:05:40.146Z,56.17
2022-10-11T00:06:40.150Z,56.17
2022-10-11T00:07:40.175Z,56.27
2022-10-11T00:08:40.186Z,56.27
2022-10-11T00:09:40.223Z,56.27
2022-10-11T00:10:40.238Z,56.17
2022-10-11T00:11:40.244Z,56.27
2022-10-11T00:12:40.342Z,56.27
2022-10-11T00:13:40.339Z,56.27
2022-10-11T00:14:40.321Z,56.27
2022-10-11T00:15:40.322Z,56.27
2022-10-11T00:16:40.361Z,56.37
2022-10-11T00:17:40.382Z,56.37
2022-10-11T00:18:40.439Z,56.27
2022-10-11T00:19:40.408Z,56.27
2022-10-11T00:20:40.429Z,56.27
2022-10-11T00:21:40.454Z,56.27
2022-10-11T00:22:40.473Z,56.27
2022-10-11T00:23:40.515Z,56.27
2022-10-11T00:24:40.515Z,56.27
2022-10-11T00:25:40.540Z,56.27
2022-10-11T00:26:45.719Z,56.27
2022-10-11T00:27:40.580Z,56.27
2022-10-11T00:28:41.069Z,56.27
2022-10-11T00:29:40.627Z,56.37
2022-10-11T00:30:40.628Z,56.27
2022-10-11T00:31:40.661Z,56.27
2022-10-11T00:32:40.676Z,56.27
2022-10-11T00:33:40.685Z,56.37
2022-10-11T00:34:40.692Z,56.37
2022-10-11T00:35:40.705Z,56.27
2022-10-11T00:36:40.736Z,56.27
2022-10-11T00:37:40.761Z,56.37
2022-10-11T00:38:40.793Z,56.37
2022-10-11T00:39:40.819Z,56.37
2022-10-11T00:40:40.827Z,56.27
2022-10-11T00:41:40.846Z,56.27
2022-10-11T00:42:40.865Z,56.37
2022-10-11T00:43:40.927Z,56.37
2022-10-11T00:44:40.882Z,56.37
2022-10-11T00:45:41.111Z,56.37
2022-10-11T00:46:40.915Z,56.27
2022-10-11T00:47:40.932Z,56.37
2022-10-11T00:48:40.944Z,56.37
2022-10-11T00:49:40.975Z,56.37
2022-10-11T00:50:40.965Z,56.37
2022-10-11T00:51:40.981Z,56.37
2022-10-11T00:52:40.988Z,56.37
2022-10-11T00:53:41.004Z,56.37
2022-10-11T00:54:40.995Z,56.37
2022-10-11T00:55:41.020Z,56.37
2022-10-11T00:56:41.058Z,56.37
2022-10-11T00:57:41.082Z,56.37
2022-10-11T00:58:41.093Z,56.48
2022-10-11T00:59:41.095Z,56.48
2022-10-11T01:00:41.114Z,56.48
2022-10-11T01:01:41.204Z,56.48
2022-10-11T01:02:41.148Z,56.48
2022-10-11T01:03:41.168Z,56.48
2022-10-11T01:04:41.204Z,56.48
2022-10-11T01:05:41.200Z,56.48
2022-10-11T01:06:41.229Z,56.48
2022-10-11T01:07:41.217Z,56.48
2022-10-11T01:08:41.245Z,56.48
2022-10-11T01:09:41.266Z,56.48
2022-10-11T01:10:41.262Z,56.48
2022-10-11T01:11:41.298Z,56.48
2022-10-11T01:12:41.273Z,56.48
2022-10-11T01:13:41.271Z,56.48
2022-10-11T01:14:41.282Z,56.48
2022-10-11T01:15:41.299Z,56.48
2022-10-11T01:16:41.313Z,56.48
2022-10-11T01:17:41.317Z,56.48
2022-10-11T01:18:41.322Z,56.48
2022-10-11T01:19:41.340Z,56.48
2022-10-11T01:20:41.362Z,56.48
2022-10-11T01:21:41.338Z,56.57
2022-10-11T01:22:41.370Z,56.48
2022-10-11T01:23:41.373Z,56.48
2022-10-11T01:24:41.370Z,56.57
2022-10-11T01:25:41.374Z,56.57
2022-10-11T01:26:41.415Z,56.48
2022-10-11T01:27:41.385Z,56.48
2022-10-11T01:28:41.472Z,56.48
2022-10-11T01:29:41.397Z,56.48
2022-10-11T01:30:41.425Z,56.57
2022-10-11T01:31:41.405Z,56.57
2022-10-11T01:32:41.420Z,56.57
2022-10-11T01:33:41.482Z,56.57
2022-10-11T01:34:41.431Z,56.57
2022-10-11T01:35:41.459Z,56.57
2022-10-11T01:36:41.463Z,56.67
2022-10-11T01:37:41.444Z,56.67
2022-10-11T01:38:41.451Z,56.67
2022-10-11T01:39:41.488Z,56.57
2022-10-11T01:40:41.508Z,56.67
2022-10-11T01:41:41.541Z,56.67
2022-10-11T01:42:41.520Z,56.67
2022-10-11T01:43:41.537Z,56.67
2022-10-11T01:44:41.533Z,56.67
2022-10-11T01:45:41.553Z,56.77
2022-10-11T01:46:41.570Z,56.77
2022-10-11T01:47:41.587Z,56.67
2022-10-11T01:48:41.629Z,56.67
2022-10-11T01:49:41.679Z,56.67
2022-10-11T01:50:41.672Z,56.67
2022-10-11T01:51:46.369Z,56.67
2022-10-11T01:52:41.714Z,56.67
2022-10-11T01:53:41.734Z,56.67
2022-10-11T01:55:07.644Z,56.67
2022-10-11T01:55:41.799Z,56.67
2022-10-11T01:56:41.819Z,56.67
2022-10-11T01:57:41.855Z,56.67
2022-10-11T01:58:41.813Z,56.67
2022-10-11T01:59:41.830Z,56.67
2022-10-11T02:00:41.840Z,56.67
2022-10-11T02:01:41.985Z,56.67
2022-10-11T02:02:41.852Z,56.67
2022-10-11T02:03:41.890Z,56.67
2022-10-11T02:04:41.900Z,56.67
2022-10-11T02:05:41.949Z,56.67
2022-10-11T02:06:41.959Z,56.67
2022-10-11T02:07:41.988Z,56.67
2022-10-11T02:08:42.007Z,56.67
2022-10-11T02:09:42.024Z,56.67
2022-10-11T02:10:42.053Z,56.67
2022-10-11T02:11:42.079Z,56.77
2022-10-11T02:12:42.088Z,56.77
2022-10-11T02:13:42.131Z,56.67
2022-10-11T02:14:42.133Z,56.77
2022-10-11T02:15:42.138Z,56.67
2022-10-11T02:16:42.192Z,56.67
2022-10-11T02:17:42.163Z,56.67
2022-10-11T02:18:42.162Z,56.67
2022-10-11T02:19:42.170Z,56.77
2022-10-11T02:20:42.175Z,56.77
2022-10-11T02:21:42.304Z,56.77
2022-10-11T02:22:42.213Z,56.80
2022-10-11T02:23:42.223Z,56.80
2022-10-11T02:24:42.239Z,56.80
2022-10-11T02:25:42.247Z,56.77
2022-10-11T02:26:42.263Z,56.90
2022-10-11T02:27:42.277Z,56.90
2022-10-11T02:28:42.375Z,56.90
2022-10-11T02:29:42.326Z,56.80
2022-10-11T02:30:42.338Z,56.77
2022-10-11T02:31:42.373Z,56.80
2022-10-11T02:32:42.371Z,56.80
2022-10-11T02:33:42.396Z,56.80
2022-10-11T02:34:42.411Z,56.77
2022-10-11T02:35:42.417Z,56.77
2022-10-11T02:36:42.457Z,56.67
2022-10-11T02:37:42.502Z,56.77
2022-10-11T02:38:42.453Z,56.80
2022-10-11T02:39:42.480Z,56.77
2022-10-11T02:40:42.488Z,56.80
2022-10-11T02:41:42.503Z,56.90
2022-10-11T02:42:42.538Z,56.90
2022-10-11T02:43:42.557Z,56.90
2022-10-11T02:44:42.578Z,56.80
2022-10-11T02:45:42.578Z,56.90
2022-10-11T02:46:42.586Z,56.80
2022-10-11T02:47:42.598Z,56.90
2022-10-11T02:48:42.611Z,56.90
2022-10-11T02:49:42.662Z,56.90
2022-10-11T02:50:42.662Z,56.90
2022-10-11T02:51:42.705Z,56.90
2022-10-11T02:52:42.681Z,57.00
2022-10-11T02:53:42.716Z,56.90
2022-10-11T02:54:42.674Z,56.90
2022-10-11T02:55:42.704Z,56.90
2022-10-11T02:56:42.768Z,56.90
2022-10-11T02:57:42.728Z,57.00
2022-10-11T02:58:42.752Z,57.00
2022-10-11T02:59:42.782Z,57.00
2022-10-11T03:00:42.791Z,57.00
2022-10-11T03:01:42.927Z,57.00
2022-10-11T03:02:42.817Z,56.90
2022-10-11T03:03:42.856Z,56.90
2022-10-11T03:04:42.875Z,56.90
2022-10-11T03:05:42.889Z,56.90
2022-10-11T03:06:42.913Z,56.90
2022-10-11T03:07:42.899Z,56.77
2022-10-11T03:08:42.932Z,56.77
2022-10-11T03:09:42.946Z,56.77
2022-10-11T03:10:42.913Z,56.77
2022-10-11T03:11:42.940Z,56.77
2022-10-11T03:12:42.956Z,56.77
2022-10-11T03:13:42.958Z,56.67
2022-10-11T03:14:42.964Z,56.67
2022-10-11T03:15:42.973Z,56.67
2022-10-11T03:16:43.005Z,56.57
2022-10-11T03:17:42.983Z,56.77
2022-10-11T03:18:43.014Z,56.98
2022-10-11T03:19:43.038Z,57.17
2022-10-11T03:20:43.029Z,58.68
2022-10-11T03:21:43.024Z,59.28
2022-10-11T03:22:43.046Z,59.68
2022-10-11T03:23:43.049Z,60.28
2022-10-11T03:24:43.053Z,60.48
2022-10-11T03:25:43.104Z,61.08
2022-10-11T03:26:43.079Z,61.28
2022-10-11T03:27:43.074Z,61.48
2022-10-11T03:28:43.172Z,61.48
2022-10-11T03:29:43.101Z,61.38
2022-10-11T03:30:43.114Z,61.28
2022-10-11T03:31:43.118Z,61.18
2022-10-11T03:32:43.142Z,60.98
2022-10-11T03:33:43.149Z,60.78
2022-10-11T03:34:43.177Z,60.68
2022-10-11T03:35:43.201Z,60.68
2022-10-11T03:36:43.223Z,60.68
2022-10-11T03:37:43.244Z,60.58
2022-10-11T03:38:43.228Z,60.58
2022-10-11T03:39:43.235Z,60.58
2022-10-11T03:40:43.260Z,60.58
2022-10-11T03:41:43.316Z,60.58
2022-10-11T03:42:43.314Z,60.48
2022-10-11T03:43:43.349Z,60.48
2022-10-11T03:44:43.365Z,60.38
2022-10-11T03:45:43.387Z,60.38
2022-10-11T03:46:43.410Z,60.38
2022-10-11T03:47:43.444Z,60.38
2022-10-11T03:48:43.459Z,60.38
2022-10-11T03:49:43.974Z,60.31
2022-10-11T03:50:43.421Z,60.28
2022-10-11T03:51:43.434Z,60.28
2022-10-11T03:52:43.438Z,60.18
2022-10-11T03:53:43.474Z,60.18
2022-10-11T03:54:43.461Z,60.21
2022-10-11T03:55:43.469Z,60.21
2022-10-11T03:56:43.470Z,60.21
2022-10-11T03:57:43.526Z,60.11
2022-10-11T03:58:43.478Z,60.11
2022-10-11T03:59:43.523Z,60.01
2022-10-11T04:00:43.541Z,60.11
2022-10-11T04:01:43.650Z,60.01
2022-10-11T04:02:43.577Z,60.01
2022-10-11T04:03:43.583Z,59.91
2022-10-11T04:04:43.608Z,59.91
2022-10-11T04:05:43.620Z,59.91
2022-10-11T04:06:43.645Z,59.91
2022-10-11T04:07:43.620Z,59.91
2022-10-11T04:08:43.651Z,59.91
2022-10-11T04:09:43.617Z,59.91
2022-10-11T04:10:43.631Z,59.81
2022-10-11T04:11:43.675Z,59.81
2022-10-11T04:12:43.695Z,59.81
2022-10-11T04:13:43.689Z,59.70
2022-10-11T04:14:43.681Z,59.70
2022-10-11T04:15:43.712Z,59.70
2022-10-11T04:16:43.727Z,59.70
2022-10-11T04:17:43.767Z,59.70
2022-10-11T04:18:43.744Z,59.70
2022-10-11T04:19:43.742Z,59.70
2022-10-11T04:20:43.780Z,59.61
2022-10-11T04:21:43.824Z,59.61
2022-10-11T04:22:43.844Z,59.61
2022-10-11T04:23:43.829Z,59.61
2022-10-11T04:24:43.852Z,59.61
2022-10-11T04:25:43.873Z,59.50
2022-10-11T04:26:43.900Z,59.50
2022-10-11T04:27:43.908Z,59.50
2022-10-11T04:28:44.060Z,59.50
2022-10-11T04:29:43.998Z,59.50
2022-10-11T04:30:43.941Z,59.61
2022-10-11T04:31:43.976Z,59.61
2022-10-11T04:32:43.964Z,59.61
2022-10-11T04:33:43.994Z,59.50
2022-10-11T04:34:44.005Z,59.50
2022-10-11T04:35:44.072Z,59.50
2022-10-11T04:36:48.970Z,59.50
2022-10-11T04:37:44.043Z,59.50
2022-10-11T04:38:44.055Z,59.41
2022-10-11T04:39:44.064Z,59.41
2022-10-11T04:40:44.083Z,59.41
2022-10-11T04:41:44.108Z,59.41
2022-10-11T04:42:44.095Z,59.31
2022-10-11T04:43:44.124Z,59.41
2022-10-11T04:44:44.138Z,59.41
2022-10-11T04:45:44.158Z,59.41
2022-10-11T04:46:44.190Z,59.31
2022-10-11T04:47:44.154Z,59.41
2022-10-11T04:48:44.166Z,59.41
2022-10-11T04:49:44.187Z,59.41
2022-10-11T04:50:44.204Z,59.41
2022-10-11T04:51:44.236Z,59.41
2022-10-11T04:52:44.283Z,59.31
2022-10-11T04:53:44.281Z,59.31
2022-10-11T04:54:44.333Z,59.31
2022-10-11T04:55:44.342Z,59.41
2022-10-11T04:56:44.371Z,59.41
2022-10-11T04:57:44.379Z,59.41
2022-10-11T04:58:44.373Z,59.41
2022-10-11T04:59:49.219Z,59.31
2022-10-11T05:02:10.402Z,59.31
2022-10-11T05:03:10.346Z,59.31
2022-10-11T05:04:10.371Z,59.31
2022-10-11T05:05:10.383Z,59.20
2022-10-11T05:06:10.665Z,59.20
2022-10-11T05:07:10.407Z,59.20
2022-10-11T05:08:10.455Z,59.20
2022-10-11T05:09:10.417Z,59.20
2022-10-11T05:10:10.426Z,59.20
2022-10-11T05:11:10.447Z,59.20
2022-10-11T05:12:10.485Z,59.20
2022-10-11T05:13:10.508Z,59.20
2022-10-11T05:14:10.531Z,59.20
2022-10-11T05:15:10.503Z,59.20
2022-10-11T05:16:11.553Z,59.20
2022-10-11T05:17:10.526Z,59.20
2022-10-11T05:18:10.561Z,59.11
2022-10-11T05:19:10.528Z,59.11
2022-10-11T05:20:10.557Z,59.11
2022-10-11T05:21:10.563Z,59.11
2022-10-11T05:22:10.595Z,59.11
2022-10-11T05:23:10.632Z,59.11
2022-10-11T05:24:10.591Z,59.11
2022-10-11T05:25:10.601Z,59.11
2022-10-11T05:26:10.680Z,59.11
2022-10-11T05:27:10.656Z,59.13
2022-10-11T05:28:10.782Z,59.13
2022-10-11T05:29:10.693Z,59.00
2022-10-11T05:30:10.706Z,59.00
2022-10-11T05:31:10.720Z,59.00
2022-10-11T05:32:10.675Z,59.00
2022-10-11T05:33:10.703Z,59.03
2022-10-11T05:34:10.856Z,59.11
2022-10-11T05:35:10.815Z,59.03
2022-10-11T05:36:10.774Z,59.03
2022-10-11T05:37:10.774Z,59.03
2022-10-11T05:38:10.748Z,59.03
2022-10-11T05:39:11.252Z,59.03
2022-10-11T05:40:10.774Z,59.03
2022-10-11T05:41:10.791Z,59.03
2022-10-11T05:42:10.815Z,58.94
2022-10-11T05:43:10.845Z,58.94
2022-10-11T05:44:10.863Z,58.94
2022-10-11T05:45:11.214Z,58.91
2022-10-11T05:46:10.934Z,58.91
2022-10-11T05:47:10.910Z,58.94
2022-10-11T05:48:10.936Z,58.94
2022-10-11T05:49:10.978Z,58.94
2022-10-11T05:50:10.999Z,58.91
2022-10-11T05:51:10.965Z,58.94
2022-10-11T05:52:10.986Z,58.94
2022-10-11T05:53:11.014Z,58.94
2022-10-11T05:54:11.025Z,58.91
2022-10-11T05:55:11.092Z,58.94
2022-10-11T05:56:11.028Z,58.94
2022-10-11T05:57:11.047Z,58.94
2022-10-11T05:58:11.075Z,58.94
2022-10-11T05:59:11.093Z,58.83
2022-10-11T06:00:11.143Z,58.83
2022-10-11T06:01:11.217Z,58.83
2022-10-11T06:02:11.145Z,58.83
2022-10-11T06:03:11.144Z,58.81
2022-10-11T06:04:11.172Z,58.81
2022-10-11T06:05:11.197Z,58.83
2022-10-11T06:06:11.252Z,58.83
2022-10-11T06:07:11.242Z,58.83
2022-10-11T06:08:11.239Z,58.83
2022-10-11T06:09:11.219Z,58.83
2022-10-11T06:10:11.241Z,58.83
2022-10-11T06:11:12.147Z,58.73
2022-10-11T06:12:11.424Z,58.73
2022-10-11T06:13:11.327Z,58.70
2022-10-11T06:14:11.345Z,58.70
2022-10-11T06:15:11.375Z,58.61
2022-10-11T06:16:11.511Z,58.61
2022-10-11T06:17:11.456Z,58.61
2022-10-11T06:18:11.417Z,58.61
2022-10-11T06:19:11.463Z,58.61
2022-10-11T06:20:11.509Z,58.50
2022-10-11T06:21:11.493Z,58.61
2022-10-11T06:22:11.560Z,58.61
2022-10-11T06:23:11.543Z,58.50
2022-10-11T06:24:11.580Z,58.50
2022-10-11T06:25:11.549Z,58.61
2022-10-11T06:26:11.560Z,58.61
2022-10-11T06:27:11.616Z,58.61
2022-10-11T06:28:11.617Z,58.40
2022-10-11T06:29:11.624Z,58.30
2022-10-11T06:30:11.650Z,58.20
2022-10-11T06:31:11.646Z,58.07
2022-10-11T06:32:11.649Z,57.87
2022-10-11T06:33:11.643Z,57.87
2022-10-11T06:34:11.670Z,57.68
2022-10-11T06:35:11.649Z,57.68
2022-10-11T06:36:11.668Z,57.57
2022-10-11T06:37:11.702Z,57.45
2022-10-11T06:38:11.751Z,57.35
2022-10-11T06:39:11.822Z,57.24
2022-10-11T06:40:11.781Z,57.15
2022-10-11T06:41:11.817Z,57.05
2022-10-11T06:42:11.796Z,56.85
2022-10-11T06:43:11.806Z,56.82
2022-10-11T06:44:14.183Z,56.72
2022-10-11T06:45:11.856Z,56.72
2022-10-11T06:46:11.967Z,56.72
2022-10-11T06:47:11.895Z,56.62
2022-10-11T06:48:11.900Z,56.62
2022-10-11T06:49:11.942Z,56.62
2022-10-11T06:50:11.925Z,56.52
2022-10-11T06:51:11.971Z,56.52
2022-10-11T06:52:11.932Z,56.52
2022-10-11T06:53:11.933Z,56.52
2022-10-11T06:54:11.976Z,56.52
2022-10-11T06:55:11.936Z,56.42
2022-10-11T06:56:11.944Z,56.52
2022-10-11T06:57:11.945Z,56.52
2022-10-11T06:58:11.962Z,56.59
2022-10-11T06:59:11.972Z,56.49
2022-10-11T07:00:12.862Z,56.49
2022-10-11T07:01:12.181Z,56.59
2022-10-11T07:02:12.070Z,56.59
2022-10-11T07:03:12.063Z,56.49
2022-10-11T07:04:12.089Z,56.39
2022-10-11T07:05:12.038Z,56.20
2022-10-11T07:06:12.114Z,55.69
2022-10-11T07:07:12.051Z,54.79
2022-10-11T07:08:12.076Z,54.49
2022-10-11T07:09:12.109Z,53.89
2022-10-11T07:10:12.101Z,53.59
2022-10-11T07:11:12.098Z,53.30
2022-10-11T07:12:12.139Z,52.99
2022-10-11T07:13:17.029Z,52.49
2022-10-11T07:14:12.198Z,52.22
2022-10-11T07:15:12.197Z,51.72
2022-10-11T07:16:12.223Z,51.52
2022-10-11T07:17:12.227Z,51.32
2022-10-11T07:18:12.362Z,52.02
2022-10-11T07:19:12.264Z,52.82
2022-10-11T07:20:12.234Z,53.22
2022-10-11T07:21:12.297Z,53.19
2022-10-11T07:22:12.285Z,53.19
2022-10-11T07:23:12.341Z,53.19
2022-10-11T07:24:12.333Z,53.19
2022-10-11T07:25:12.317Z,53.30
2022-10-11T07:26:15.009Z,53.30
2022-10-11T07:27:12.372Z,53.30
2022-10-11T07:28:12.433Z,53.30
2022-10-11T07:29:12.442Z,53.39
2022-10-11T07:30:12.708Z,53.39
2022-10-11T07:31:12.445Z,53.39
2022-10-11T07:32:12.407Z,53.39
2022-10-11T07:33:12.421Z,53.39
2022-10-11T07:34:12.436Z,53.39
2022-10-11T07:35:12.487Z,53.39
2022-10-11T07:36:12.481Z,53.39
2022-10-11T07:37:12.499Z,53.49
2022-10-11T07:38:12.467Z,53.39
2022-10-11T07:39:12.614Z,53.37
2022-10-11T07:40:12.537Z,53.37
2022-10-11T07:41:12.529Z,53.37
2022-10-11T07:42:12.560Z,53.47
2022-10-11T07:43:12.536Z,53.47
2022-10-11T07:44:12.500Z,53.47
2022-10-11T07:45:12.530Z,53.47
2022-10-11T07:46:12.569Z,53.37
2022-10-11T07:47:12.638Z,53.37
2022-10-11T07:48:12.570Z,53.37
2022-10-11T07:49:12.597Z,53.47
2022-10-11T07:50:12.632Z,53.34
2022-10-11T07:51:12.652Z,53.34
2022-10-11T07:52:12.669Z,53.44
2022-10-11T07:53:12.790Z,53.44
2022-10-11T07:54:12.738Z,53.44
2022-10-11T07:55:12.791Z,53.44
2022-10-11T07:56:12.883Z,53.34
2022-10-11T07:57:12.802Z,53.44
2022-10-11T07:58:12.823Z,53.34
2022-10-11T07:59:12.830Z,53.34
2022-10-11T08:00:12.781Z,53.34
2022-10-11T08:01:12.828Z,53.34
2022-10-11T08:02:12.808Z,53.34
2022-10-11T08:03:12.941Z,53.34
2022-10-11T08:04:12.920Z,53.34
2022-10-11T08:05:12.820Z,53.34
2022-10-11T08:06:12.843Z,53.24
2022-10-11T08:07:12.829Z,53.14
2022-10-11T08:08:12.954Z,51.84
2022-10-11T08:09:12.983Z,51.15
2022-10-11T08:10:12.882Z,50.35
2022-10-11T08:11:12.915Z,50.35
2022-10-11T08:12:12.911Z,51.75
2022-10-11T08:13:12.946Z,51.94
2022-10-11T08:14:13.382Z,51.94
2022-10-11T08:15:13.047Z,51.84
2022-10-11T08:16:13.015Z,51.82
2022-10-11T08:17:13.055Z,51.72
2022-10-11T08:18:13.043Z,51.82
2022-10-11T08:19:21.098Z,51.84
2022-10-11T08:20:13.089Z,51.94
2022-10-11T08:21:13.049Z,51.94
2022-10-11T08:22:13.041Z,52.04
2022-10-11T08:23:13.094Z,52.02
2022-10-11T08:24:13.071Z,52.02
2022-10-11T08:25:14.738Z,52.02
2022-10-11T08:26:13.253Z,52.02
2022-10-11T08:27:13.124Z,52.02
2022-10-11T08:28:13.345Z,52.02
2022-10-11T08:29:13.138Z,52.02
2022-10-11T08:30:13.208Z,52.12
2022-10-11T08:31:13.169Z,52.12
2022-10-11T08:32:13.189Z,52.12
2022-10-11T08:33:13.393Z,52.12
2022-10-11T08:34:13.377Z,52.12
2022-10-11T08:35:13.219Z,52.12
2022-10-11T08:36:13.328Z,52.12
2022-10-11T08:37:13.319Z,52.22
2022-10-11T08:38:13.267Z,52.12
2022-10-11T08:39:13.315Z,52.12
2022-10-11T08:40:13.342Z,52.12
2022-10-11T08:41:13.284Z,52.22
2022-10-11T08:42:13.365Z,52.22
2022-10-11T08:43:13.348Z,52.22
2022-10-11T08:44:13.511Z,52.22
2022-10-11T08:45:13.425Z,52.32
2022-10-11T08:46:13.657Z,52.32
2022-10-11T08:47:13.391Z,52.42
2022-10-11T08:48:13.368Z,52.42
2022-10-11T08:49:13.454Z,52.52
2022-10-11T08:50:13.487Z,52.62
2022-10-11T08:51:13.494Z,52.62
2022-10-11T08:52:13.696Z,52.62
2022-10-11T08:53:13.680Z,52.62
2022-10-11T08:54:13.586Z,52.62
2022-10-11T08:55:13.495Z,52.72
2022-10-11T08:56:13.476Z,52.72
2022-10-11T08:57:13.496Z,52.82
2022-10-11T08:58:13.463Z,52.92
2022-10-11T08:59:13.470Z,53.02
2022-10-11T09:00:13.520Z,53.02
2022-10-11T09:01:13.581Z,53.02
2022-10-11T09:02:13.535Z,53.12
2022-10-11T09:03:13.544Z,53.12
2022-10-11T09:04:13.590Z,53.12
2022-10-11T09:05:13.530Z,53.22
2022-10-11T09:06:13.577Z,53.22
2022-10-11T09:07:13.579Z,53.22
2022-10-11T09:08:13.565Z,53.31
2022-10-11T09:09:13.592Z,53.42
2022-10-11T09:10:13.575Z,53.52
2022-10-11T09:11:13.655Z,53.52
2022-10-11T09:12:13.636Z,53.52
2022-10-11T09:13:13.644Z,53.61
2022-10-11T09:14:13.683Z,53.69
2022-10-11T09:15:13.689Z,53.69
2022-10-11T09:16:13.699Z,53.69
2022-10-11T09:17:13.706Z,53.79
2022-10-11T09:18:13.706Z,53.79
2022-10-11T09:19:13.678Z,53.79
2022-10-11T09:20:13.708Z,53.89
2022-10-11T09:21:13.708Z,53.89
2022-10-11T09:22:13.716Z,53.69
2022-10-11T09:23:13.738Z,53.29
2022-10-11T09:24:13.794Z,52.99
2022-10-11T09:25:13.742Z,52.32
2022-10-11T09:26:13.738Z,52.02
2022-10-11T09:27:13.738Z,51.62
2022-10-11T09:28:13.715Z,51.52
2022-10-11T09:29:13.737Z,51.82
2022-10-11T09:30:13.797Z,52.12
2022-10-11T09:31:13.790Z,52.62
2022-10-11T09:32:13.793Z,52.62
2022-10-11T09:33:13.799Z,52.72
2022-10-11T09:34:13.833Z,52.62
2022-10-11T09:35:13.782Z,52.72
2022-10-11T09:36:13.884Z,52.72
2022-10-11T09:37:13.837Z,52.69
2022-10-11T09:38:13.868Z,52.59
2022-10-11T09:39:13.930Z,52.59
2022-10-11T09:40:13.880Z,52.59
2022-10-11T09:41:13.911Z,52.59
2022-10-11T09:42:13.969Z,52.59
2022-10-11T09:43:13.997Z,52.59
2022-10-11T09:44:14.005Z,52.69
2022-10-11T09:45:14.038Z,52.69
2022-10-11T09:46:14.214Z,52.79
2022-10-11T09:47:14.007Z,52.79
2022-10-11T09:48:14.010Z,52.89
2022-10-11T09:49:14.006Z,52.89
2022-10-11T09:50:14.406Z,52.89
2022-10-11T09:51:14.050Z,52.89
2022-10-11T09:52:14.054Z,52.89
2022-10-11T09:53:14.078Z,52.89
2022-10-11T09:54:14.059Z,52.99
2022-10-11T09:55:18.923Z,52.99
2022-10-11T09:56:14.113Z,52.99
2022-10-11T09:57:14.147Z,52.99
2022-10-11T09:58:14.132Z,53.09
2022-10-11T09:59:14.199Z,52.99
2022-10-11T10:00:14.155Z,53.02
2022-10-11T10:01:14.155Z,53.12
2022-10-11T10:02:14.301Z,53.12
2022-10-11T10:03:14.171Z,53.02
2022-10-11T10:04:14.237Z,53.02
2022-10-11T10:05:14.224Z,53.02
2022-10-11T10:06:14.249Z,53.02
2022-10-11T10:07:14.223Z,53.02
2022-10-11T10:08:14.263Z,53.12
2022-10-11T10:09:14.265Z,53.12
2022-10-11T10:10:14.299Z,52.99
2022-10-11T10:11:14.318Z,53.02
2022-10-11T10:12:14.360Z,53.12
2022-10-11T10:13:14.371Z,53.09
2022-10-11T10:14:14.352Z,53.09
2022-10-11T10:15:17.096Z,53.09
2022-10-11T10:16:14.401Z,53.09
2022-10-11T10:17:14.449Z,53.09
2022-10-11T10:18:14.436Z,52.99
2022-10-11T10:19:14.513Z,52.99
2022-10-11T10:20:14.479Z,52.99
2022-10-11T10:21:14.453Z,52.99
2022-10-11T10:22:14.467Z,52.99
2022-10-11T10:23:14.538Z,52.99
2022-10-11T10:24:14.464Z,53.09
2022-10-11T10:25:14.489Z,52.99
2022-10-11T10:26:14.425Z,53.09
2022-10-11T10:27:14.486Z,53.09
2022-10-11T10:28:14.586Z,53.09
2022-10-11T10:29:14.551Z,53.09
2022-10-11T10:30:14.525Z,53.09
2022-10-11T10:31:14.555Z,53.09
2022-10-11T10:32:15.293Z,53.09
2022-10-11T10:33:14.677Z,53.79
2022-10-11T10:34:14.695Z,53.69
2022-10-11T10:35:15.598Z,54.09
2022-10-11T10:36:14.680Z,54.49
2022-10-11T10:37:14.673Z,54.59
2022-10-11T10:38:14.688Z,54.59
2022-10-11T10:39:14.676Z,54.79
2022-10-11T10:40:14.683Z,54.79
2022-10-11T10:41:14.736Z,54.89
2022-10-11T10:42:14.831Z,54.89
2022-10-11T10:43:14.749Z,54.89
2022-10-11T10:44:14.732Z,54.89
2022-10-11T10:45:20.076Z,54.89
2022-10-11T10:46:14.771Z,54.89
2022-10-11T10:47:14.758Z,54.89
2022-10-11T10:48:14.756Z,54.89
2022-10-11T10:50:14.852Z,54.79
2022-10-11T10:51:14.831Z,54.79
2022-10-11T10:52:14.889Z,54.79
2022-10-11T10:53:14.829Z,54.79
2022-10-11T10:54:14.863Z,54.79
2022-10-11T10:55:14.941Z,54.79
2022-10-11T10:56:14.887Z,54.69
2022-10-11T10:57:14.914Z,54.69
2022-10-11T10:58:18.582Z,54.69
2022-10-11T10:59:14.914Z,54.79
2022-10-11T11:00:15.065Z,54.99
2022-10-11T11:01:15.113Z,55.09
2022-10-11T11:02:39.264Z,55.09
2022-10-11T11:03:15.082Z,55.39
2022-10-11T11:04:15.040Z,55.39
2022-10-11T11:05:15.015Z,55.39
2022-10-11T11:06:15.126Z,55.29
2022-10-11T11:07:15.085Z,55.29
2022-10-11T11:08:15.053Z,55.29
2022-10-11T11:09:15.103Z,55.29
2022-10-11T11:10:15.158Z,55.29
2022-10-11T11:11:15.083Z,55.29
2022-10-11T11:12:15.091Z,55.29
2022-10-11T11:13:15.077Z,55.29
2022-10-11T11:14:15.120Z,55.29
2022-10-11T11:15:15.132Z,55.39
2022-10-11T11:16:15.150Z,55.39
2022-10-11T11:17:15.203Z,55.39
2022-10-11T11:18:15.209Z,55.29
2022-10-11T11:19:15.184Z,55.09
2022-10-11T11:20:15.333Z,55.09
2022-10-11T11:21:15.277Z,55.19
2022-10-11T11:22:15.221Z,55.26
2022-10-11T11:23:15.245Z,55.36
2022-10-11T11:24:15.252Z,55.26
2022-10-11T11:25:15.269Z,55.26
2022-10-11T11:26:15.341Z,55.29
2022-10-11T11:27:15.318Z,55.29
2022-10-11T11:28:15.414Z,55.29
2022-10-11T11:29:15.323Z,55.29
2022-10-11T11:30:15.332Z,55.29
2022-10-11T11:31:15.358Z,55.19
2022-10-11T11:32:15.396Z,55.19
2022-10-11T11:33:15.494Z,55.19
2022-10-11T11:34:15.461Z,55.29
2022-10-11T11:35:15.469Z,55.19
2022-10-11T11:36:15.481Z,55.19
2022-10-11T11:37:15.524Z,55.09
2022-10-11T11:38:15.529Z,55.06
2022-10-11T11:39:15.534Z,54.96
2022-10-11T11:40:15.556Z,54.96
2022-10-11T11:41:15.583Z,54.96
2022-10-11T11:42:15.581Z,54.96
2022-10-11T11:43:15.579Z,54.86
2022-10-11T11:44:15.590Z,54.86
2022-10-11T11:45:15.606Z,54.86
2022-10-11T11:46:15.742Z,54.76
2022-10-11T11:47:15.645Z,54.96
2022-10-11T11:48:15.707Z,54.86
2022-10-11T11:49:15.670Z,54.76
2022-10-11T11:50:15.705Z,54.96
2022-10-11T11:51:15.721Z,54.76
2022-10-11T11:52:15.733Z,54.76
2022-10-11T11:53:15.727Z,54.66
2022-10-11T11:54:15.742Z,54.86
2022-10-11T11:55:15.785Z,54.86
2022-10-11T11:56:15.787Z,54.76
2022-10-11T11:57:15.800Z,54.76
2022-10-11T11:58:15.847Z,54.57
2022-10-11T11:59:15.825Z,54.57
2022-10-11T12:00:15.814Z,54.57
2022-10-11T12:01:15.847Z,54.57
2022-10-11T12:02:15.929Z,54.57
2022-10-11T12:03:15.924Z,54.57
2022-10-11T12:04:15.881Z,54.46
2022-10-11T12:05:15.872Z,54.46
2022-10-11T12:06:15.896Z,54.36
2022-10-11T12:07:17.375Z,54.27
2022-10-11T12:08:15.972Z,54.27
2022-10-11T12:09:15.975Z,54.16
2022-10-11T12:10:16.001Z,54.06
2022-10-11T12:11:16.005Z,54.06
2022-10-11T12:12:16.057Z,53.94
2022-10-11T12:13:16.046Z,53.84
2022-10-11T12:14:16.101Z,53.84
2022-10-11T12:15:16.071Z,53.74
2022-10-11T12:16:16.106Z,53.84
2022-10-11T12:17:16.152Z,53.84
2022-10-11T12:18:16.121Z,53.94
2022-10-11T12:19:16.127Z,53.84
2022-10-11T12:20:16.152Z,53.74
2022-10-11T12:21:16.183Z,53.74
2022-10-11T12:22:16.194Z,53.74
2022-10-11T12:23:19.834Z,53.74
2022-10-11T12:24:16.232Z,53.74
2022-10-11T12:25:18.535Z,53.74
2022-10-11T12:26:16.274Z,54.14
2022-10-11T12:27:16.313Z,53.84
2022-10-11T12:28:16.432Z,53.74
2022-10-11T12:29:16.347Z,53.74
2022-10-11T12:30:16.375Z,53.74
2022-10-11T12:31:16.387Z,53.64
2022-10-11T12:32:16.395Z,53.64
2022-10-11T12:33:16.554Z,53.74
2022-10-11T12:34:16.443Z,53.64
2022-10-11T12:35:16.436Z,53.44
2022-10-11T12:36:16.442Z,53.34
2022-10-11T12:37:16.476Z,53.44
2022-10-11T12:38:16.473Z,53.34
2022-10-11T12:39:16.521Z,53.24
2022-10-11T12:40:16.696Z,53.24
2022-10-11T12:41:16.514Z,53.22
2022-10-11T12:42:16.536Z,53.24
2022-10-11T12:43:16.596Z,53.24
2022-10-11T12:44:16.590Z,53.24
2022-10-11T12:45:16.615Z,53.24
2022-10-11T12:46:16.604Z,53.22
2022-10-11T12:47:16.580Z,53.11
2022-10-11T12:48:16.597Z,53.11
2022-10-11T12:49:16.679Z,53.02
2022-10-11T12:50:17.571Z,53.02
2022-10-11T12:51:16.616Z,53.02
2022-10-11T12:52:16.629Z,52.92
2022-10-11T12:53:16.685Z,52.81
2022-10-11T12:54:29.948Z,52.81
2022-10-11T12:55:16.713Z,52.81